createdAt,value
2022-10-28T00:00:32.680Z,13.50
2022-10-28T00:03:18.790Z,13.00
2022-10-28T00:06:09.493Z,12.90
2022-10-28T00:08:54.843Z,12.90
2022-10-28T00:11:40.314Z,12.90
2022-10-28T00:14:25.534Z,12.90
2022-10-28T00:17:10.789Z,13.30
2022-10-28T00:19:56.147Z,12.70
2022-10-28T00:22:42.984Z,12.60
2022-10-28T00:25:28.595Z,12.70
2022-10-28T00:28:14.216Z,12.80
2022-10-28T00:31:07.079Z,12.80
2022-10-28T00:33:53.207Z,12.80
2022-10-28T00:36:40.795Z,13.00
2022-10-28T00:39:27.547Z,12.90
2022-10-28T00:42:20.956Z,12.90
2022-10-28T00:45:07.447Z,12.80
2022-10-28T00:47:59.077Z,12.50
2022-10-28T00:50:51.950Z,12.40
2022-10-28T00:53:39.897Z,12.40
2022-10-28T00:56:30.538Z,12.40
2022-10-28T00:59:27.056Z,12.50
2022-10-28T01:02:12.845Z,12.50
2022-10-28T01:04:59.095Z,12.40
2022-10-28T01:07:45.398Z,12.60
2022-10-28T01:11:04.148Z,11.00
2022-10-28T01:14:43.622Z,12.30
2022-10-28T01:18:04.528Z,12.10
2022-10-28T01:21:09.049Z,12.10
2022-10-28T01:24:19.386Z,12.10
2022-10-28T01:27:26.905Z,12.20
2022-10-28T01:30:16.761Z,12.20
2022-10-28T01:33:29.669Z,12.20
2022-10-28T01:36:36.735Z,12.20
2022-10-28T01:39:29.762Z,12.30
2022-10-28T01:42:33.817Z,13.90
2022-10-28T01:45:26.761Z,12.30
2022-10-28T01:48:23.809Z,12.20
2022-10-28T01:51:30.722Z,12.20
2022-10-28T01:54:19.698Z,12.20
2022-10-28T01:57:05.932Z,13.10
2022-10-28T01:59:52.299Z,12.00
2022-10-28T02:02:39.066Z,11.90
2022-10-28T02:05:49.195Z,11.80
2022-10-28T02:08:56.427Z,11.60
2022-10-28T02:12:09.847Z,11.70
2022-10-28T02:15:16.876Z,11.80
2022-10-28T02:18:22.518Z,11.70
2022-10-28T02:21:30.283Z,12.70
2022-10-28T02:24:32.898Z,12.10
2022-10-28T02:27:36.007Z,11.90
2022-10-28T02:30:25.504Z,11.80
2022-10-28T02:33:15.079Z,12.40
2022-10-28T02:45:21.185Z,11.80
2022-10-28T02:48:19.513Z,11.80
2022-10-28T02:51:24.976Z,11.70
2022-10-28T02:54:14.924Z,11.70
2022-10-28T02:57:17.872Z,11.70
2022-10-28T03:00:10.586Z,11.80
2022-10-28T03:02:55.946Z,11.70
2022-10-28T03:05:41.218Z,11.80
2022-10-28T03:08:26.714Z,13.30
2022-10-28T03:11:12.181Z,11.80
2022-10-28T03:13:57.842Z,11.70
2022-10-28T03:16:43.312Z,11.70
2022-10-28T03:19:28.618Z,11.90
2022-10-28T03:22:14.242Z,11.80
2022-10-28T03:24:59.524Z,11.80
2022-10-28T03:27:45.108Z,11.70
2022-10-28T03:30:30.493Z,11.70
2022-10-28T03:33:15.958Z,12.00
2022-10-28T03:36:01.706Z,11.90
2022-10-28T03:38:47.135Z,13.10
2022-10-28T03:41:32.673Z,11.60
2022-10-28T03:44:17.999Z,11.60
2022-10-28T03:47:03.753Z,11.80
2022-10-28T03:49:48.992Z,11.80
2022-10-28T03:52:34.625Z,12.40
2022-10-28T03:55:20.138Z,11.90
2022-10-28T03:58:05.733Z,11.90
2022-10-28T04:00:52.105Z,12.00
2022-10-28T04:03:37.232Z,12.00
2022-10-28T04:06:22.863Z,12.00
2022-10-28T04:09:08.305Z,12.00
2022-10-28T04:11:53.645Z,13.20
2022-10-28T04:14:38.893Z,11.60
2022-10-28T04:17:24.405Z,11.70
2022-10-28T04:20:10.185Z,12.60
2022-10-28T04:22:57.222Z,11.80
2022-10-28T04:25:43.091Z,11.90
2022-10-28T04:28:28.392Z,12.00
2022-10-28T04:31:13.942Z,12.00
2022-10-28T04:33:59.552Z,12.60
2022-10-28T04:36:45.289Z,12.00
2022-10-28T04:39:30.746Z,12.00
2022-10-28T04:42:16.505Z,12.10
2022-10-28T04:45:01.868Z,13.80
2022-10-28T04:47:47.237Z,12.20
2022-10-28T04:50:32.847Z,12.90
2022-10-28T04:53:18.143Z,12.30
2022-10-28T04:56:03.833Z,12.30
2022-10-28T04:58:49.189Z,12.50
2022-10-28T05:01:34.472Z,12.40
2022-10-28T05:04:20.105Z,12.30
2022-10-28T05:07:05.453Z,13.30
2022-10-28T05:09:50.803Z,12.20
2022-10-28T05:12:36.291Z,12.30
2022-10-28T05:15:21.922Z,12.40
2022-10-28T05:18:07.582Z,12.40
2022-10-28T05:20:54.984Z,12.40
2022-10-28T05:23:40.788Z,12.20
2022-10-28T05:26:26.031Z,13.00
2022-10-28T05:29:11.620Z,12.70
2022-10-28T05:31:57.309Z,12.40
2022-10-28T05:34:42.689Z,14.10
2022-10-28T05:37:28.291Z,12.90
2022-10-28T05:40:13.883Z,13.20
2022-10-28T05:43:00.429Z,12.60
2022-10-28T05:45:52.975Z,13.10
2022-10-28T05:48:38.281Z,13.40
2022-10-28T05:51:23.562Z,12.70
2022-10-28T05:54:09.269Z,13.90
2022-10-28T05:56:54.697Z,12.70
2022-10-28T05:59:40.269Z,12.70
2022-10-28T06:02:25.821Z,12.50
2022-10-28T06:05:12.331Z,12.50
2022-10-28T06:07:58.022Z,13.00
2022-10-28T06:10:49.941Z,12.70
2022-10-28T06:13:35.345Z,12.50
2022-10-28T06:16:21.112Z,12.40
2022-10-28T06:19:06.417Z,12.40
2022-10-28T06:21:51.947Z,12.40
2022-10-28T06:24:37.249Z,14.00
2022-10-28T06:27:22.996Z,12.50
2022-10-28T06:30:09.001Z,12.50
2022-10-28T06:32:57.752Z,12.60
2022-10-28T06:35:43.266Z,12.60
2022-10-28T06:38:28.912Z,13.10
2022-10-28T06:41:14.432Z,12.90
2022-10-28T06:44:00.185Z,12.50
2022-10-28T06:46:47.049Z,13.00
2022-10-28T06:49:32.807Z,12.60
2022-10-28T06:52:18.063Z,12.60
2022-10-28T06:55:03.489Z,13.40
2022-10-28T06:57:48.702Z,12.40
2022-10-28T07:00:34.744Z,12.60
2022-10-28T07:03:22.783Z,12.60
2022-10-28T07:06:08.149Z,12.80
2022-10-28T07:08:53.765Z,12.50
2022-10-28T07:11:39.369Z,12.80
2022-10-28T07:14:25.134Z,12.70
2022-10-28T07:17:10.413Z,12.70
2022-10-28T07:19:55.980Z,12.80
2022-10-28T07:22:41.349Z,13.60
2022-10-28T07:25:28.360Z,12.90
2022-10-28T07:28:13.547Z,13.00
2022-10-28T07:31:02.737Z,13.80
2022-10-28T07:33:52.987Z,13.40
2022-10-28T07:36:38.598Z,13.40
2022-10-28T07:39:24.172Z,13.50
2022-10-28T07:42:09.540Z,13.60
2022-10-28T07:44:54.734Z,13.80
2022-10-28T07:47:40.864Z,14.00
2022-10-28T07:50:26.559Z,13.80
2022-10-28T07:53:11.774Z,13.80
2022-10-28T07:55:59.549Z,13.90
2022-10-28T07:58:45.562Z,13.90
2022-10-28T08:01:32.212Z,15.00
2022-10-28T08:04:17.764Z,14.00
2022-10-28T08:07:03.303Z,14.10
2022-10-28T08:09:48.812Z,14.00
2022-10-28T08:12:34.187Z,14.00
2022-10-28T08:15:22.181Z,14.00
2022-10-28T08:18:07.479Z,14.20
2022-10-28T08:20:52.998Z,14.50
2022-10-28T08:23:38.716Z,14.50
2022-10-28T08:26:24.577Z,14.70
2022-10-28T08:29:12.174Z,14.70
2022-10-28T08:31:57.989Z,14.90
2022-10-28T08:34:46.457Z,15.10
2022-10-28T08:37:31.979Z,15.20
2022-10-28T08:40:18.252Z,15.30
2022-10-28T08:43:34.906Z,15.30
2022-10-28T08:46:28.696Z,15.30
2022-10-28T08:49:19.631Z,15.50
2022-10-28T08:52:43.896Z,15.60
2022-10-28T08:55:39.911Z,15.60
2022-10-28T08:58:28.793Z,15.80
2022-10-28T09:01:21.341Z,16.00
2022-10-28T09:04:17.099Z,16.20
2022-10-28T09:07:04.054Z,16.40
2022-10-28T09:09:51.514Z,16.50
2022-10-28T09:12:53.740Z,16.70
2022-10-28T09:16:00.494Z,16.80
2022-10-28T09:18:53.308Z,17.10
2022-10-28T09:21:48.888Z,17.20
2022-10-28T09:24:59.634Z,17.50
2022-10-28T09:28:06.439Z,17.20
2022-10-28T09:31:00.566Z,17.40
2022-10-28T09:34:10.765Z,17.80
2022-10-28T09:37:09.818Z,18.10
2022-10-28T09:40:00.313Z,18.00
2022-10-28T09:43:28.186Z,18.00
2022-10-28T09:46:16.479Z,17.70
2022-10-28T09:49:11.745Z,17.60
2022-10-28T09:52:13.889Z,17.80
2022-10-28T09:55:08.876Z,17.60
2022-10-28T09:57:54.726Z,17.90
2022-10-28T10:00:43.105Z,18.30
2022-10-28T10:03:28.522Z,18.40
2022-10-28T10:06:20.722Z,18.90
2022-10-28T10:09:06.174Z,18.00
2022-10-28T10:11:55.285Z,19.20
2022-10-28T10:14:53.840Z,19.30
2022-10-28T10:17:56.975Z,19.90
2022-10-28T10:20:57.883Z,20.20
2022-10-28T10:23:51.872Z,20.60
2022-10-28T10:30:15.758Z,20.90
2022-10-28T10:33:04.971Z,21.40
2022-10-28T10:36:00.111Z,21.60
2022-10-28T10:38:52.534Z,22.40
2022-10-28T10:41:39.402Z,22.20
2022-10-28T10:44:31.872Z,22.60
2022-10-28T10:47:20.428Z,22.50
2022-10-28T10:50:29.434Z,22.10
2022-10-28T10:53:32.132Z,22.50
2022-10-28T10:56:30.302Z,23.00
2022-10-28T10:59:31.018Z,23.30
2022-10-28T11:02:39.850Z,23.00
2022-10-28T11:05:29.195Z,22.80
2022-10-28T11:08:36.165Z,22.90
2022-10-28T11:11:33.963Z,22.80
2022-10-28T11:14:33.050Z,22.90
2022-10-28T11:17:37.668Z,23.10
2022-10-28T11:20:26.491Z,23.30
2022-10-28T11:23:26.142Z,23.40
2022-10-28T11:26:15.527Z,21.30
2022-10-28T11:29:11.621Z,21.40
2022-10-28T11:32:18.525Z,22.50
2022-10-28T11:35:24.730Z,23.10
2022-10-28T11:39:02.782Z,23.20
2022-10-28T11:42:20.742Z,23.40
2022-10-28T11:45:27.058Z,23.40
2022-10-28T11:48:26.473Z,23.20
2022-10-28T11:51:26.991Z,23.50
2022-10-28T11:54:38.393Z,23.40
2022-10-28T11:58:03.391Z,23.40
2022-10-28T12:01:22.341Z,23.50
2022-10-28T12:04:35.870Z,23.40
2022-10-28T12:07:39.952Z,23.40
2022-10-28T12:10:29.855Z,23.60
2022-10-28T12:13:51.218Z,23.70
2022-10-28T12:17:12.858Z,24.20
2022-10-28T12:20:33.098Z,24.50
2022-10-28T12:23:26.902Z,24.10
2022-10-28T12:26:17.447Z,24.10
2022-10-28T12:29:27.536Z,25.10
2022-10-28T12:32:29.034Z,24.00
2022-10-28T12:35:23.251Z,23.70
2022-10-28T12:38:36.508Z,24.00
2022-10-28T12:41:33.079Z,24.10
2022-10-28T12:44:24.609Z,23.50
2022-10-28T12:47:37.824Z,23.60
2022-10-28T12:50:39.299Z,24.70
2022-10-28T12:53:53.937Z,25.50
2022-10-28T12:57:00.219Z,25.80
2022-10-28T12:59:54.846Z,25.30
2022-10-28T13:02:49.709Z,25.00
2022-10-28T13:05:51.038Z,24.90
2022-10-28T13:09:14.382Z,25.60
2022-10-28T13:12:35.197Z,26.10
2022-10-28T13:15:49.082Z,25.80
2022-10-28T13:18:56.282Z,25.40
2022-10-28T13:22:21.894Z,25.80
2022-10-28T13:25:31.285Z,26.10
2022-10-28T13:28:19.412Z,26.40
2022-10-28T13:31:07.724Z,26.50
2022-10-28T13:34:00.638Z,26.90
2022-10-28T13:36:58.417Z,26.90
2022-10-28T13:39:44.929Z,26.90
2022-10-28T13:42:44.364Z,26.70
2022-10-28T13:45:52.261Z,26.40
2022-10-28T13:48:45.304Z,26.20
2022-10-28T13:51:31.188Z,25.80
2022-10-28T13:54:33.121Z,25.90
2022-10-28T13:57:33.212Z,26.00
2022-10-28T14:00:18.537Z,26.00
2022-10-28T14:03:27.001Z,26.40
2022-10-28T14:06:33.271Z,26.70
2022-10-28T14:09:26.741Z,26.80
2022-10-28T14:12:25.862Z,26.70
2022-10-28T14:15:18.943Z,26.20
2022-10-28T14:18:42.488Z,25.70
2022-10-28T14:21:48.328Z,26.20
2022-10-28T14:24:39.610Z,26.80
2022-10-28T14:27:41.467Z,26.60
2022-10-28T14:30:26.866Z,25.90
2022-10-28T14:33:20.152Z,25.30
2022-10-28T14:36:46.228Z,25.10
2022-10-28T14:39:51.669Z,24.70
2022-10-28T14:42:58.705Z,24.40
2022-10-28T14:45:52.989Z,24.30
2022-10-28T14:48:53.481Z,24.20
2022-10-28T14:51:43.997Z,24.10
2022-10-28T14:54:48.158Z,24.10
2022-10-28T14:57:34.968Z,24.10
2022-10-28T15:00:23.675Z,24.00
2022-10-28T15:03:11.998Z,23.90
2022-10-28T15:06:02.512Z,23.50
2022-10-28T15:08:47.984Z,23.00
2022-10-28T15:11:34.279Z,22.70
2022-10-28T15:14:39.214Z,22.50
2022-10-28T15:17:27.855Z,22.20
2022-10-28T15:20:23.035Z,22.10
2022-10-28T15:23:20.777Z,21.80
2022-10-28T15:26:16.891Z,21.70
2022-10-28T15:29:02.525Z,21.60
2022-10-28T15:32:09.533Z,21.20
2022-10-28T15:34:55.083Z,21.10
2022-10-28T15:37:40.497Z,21.30
2022-10-28T15:40:30.551Z,21.30
2022-10-28T15:43:23.680Z,21.40
2022-10-28T15:46:16.752Z,21.30
2022-10-28T15:49:02.961Z,21.20
2022-10-28T15:52:17.402Z,21.20
2022-10-28T15:55:18.913Z,21.10
2022-10-28T15:58:13.757Z,20.90
2022-10-28T16:01:02.190Z,20.80
2022-10-28T16:03:47.635Z,20.60
2022-10-28T16:06:36.727Z,20.60
2022-10-28T16:09:36.419Z,20.40
2022-10-28T16:12:26.579Z,20.30
2022-10-28T16:15:16.673Z,19.90
2022-10-28T16:18:02.003Z,19.80
2022-10-28T16:20:47.617Z,19.70
2022-10-28T16:23:38.232Z,19.50
2022-10-28T16:26:23.963Z,19.60
2022-10-28T16:29:09.543Z,19.30
2022-10-28T16:31:55.327Z,19.20
2022-10-28T16:34:41.408Z,19.10
2022-10-28T16:37:29.399Z,20.10
2022-10-28T16:40:37.777Z,18.70
2022-10-28T16:43:24.515Z,18.60
2022-10-28T16:46:12.335Z,18.40
2022-10-28T16:48:58.018Z,18.90
2022-10-28T16:51:44.668Z,18.20
2022-10-28T16:54:29.966Z,18.40
2022-10-28T16:57:16.874Z,18.20
2022-10-28T17:00:02.550Z,17.80
2022-10-28T17:02:50.886Z,17.80
2022-10-28T17:05:36.561Z,17.70
2022-10-28T17:08:42.207Z,17.60
2022-10-28T17:11:27.370Z,17.70
2022-10-28T17:14:12.636Z,17.60
2022-10-28T17:16:58.204Z,18.10
2022-10-28T17:19:45.719Z,18.20
2022-10-28T17:22:31.045Z,17.60
2022-10-28T17:25:16.530Z,17.20
2022-10-28T17:28:02.049Z,17.10
2022-10-28T17:30:47.212Z,17.00
2022-10-28T17:33:33.675Z,17.10
2022-10-28T17:36:19.327Z,17.00
2022-10-28T17:39:05.246Z,17.50
2022-10-28T17:41:50.787Z,17.00
2022-10-28T17:44:36.808Z,16.90
2022-10-28T17:47:22.114Z,16.70
2022-10-28T17:50:08.171Z,16.80
2022-10-28T17:52:53.913Z,16.70
2022-10-28T17:55:41.796Z,16.70
2022-10-28T17:58:28.181Z,16.60
2022-10-28T18:01:13.548Z,16.60
2022-10-28T18:03:59.165Z,16.50
2022-10-28T18:06:45.784Z,16.40
2022-10-28T18:09:32.349Z,16.50
2022-10-28T18:12:17.867Z,16.30
2022-10-28T18:15:05.543Z,16.30
2022-10-28T18:17:51.447Z,16.20
2022-10-28T18:20:37.637Z,16.10
2022-10-28T18:23:23.978Z,16.00
2022-10-28T18:26:11.198Z,16.00
2022-10-28T18:28:57.097Z,17.20
2022-10-28T18:31:44.470Z,16.30
2022-10-28T18:34:30.445Z,15.90
2022-10-28T18:37:15.866Z,15.80
2022-10-28T18:40:01.339Z,16.30
2022-10-28T18:42:46.886Z,15.60
2022-10-28T18:45:32.386Z,15.40
2022-10-28T18:48:18.563Z,15.50
2022-10-28T18:51:06.860Z,15.20
2022-10-28T18:53:52.597Z,15.20
2022-10-28T18:56:37.881Z,15.20
2022-10-28T18:59:26.193Z,15.20
2022-10-28T19:02:12.092Z,15.20
2022-10-28T19:04:58.154Z,16.70
2022-10-28T19:07:43.520Z,15.90
2022-10-28T19:10:28.955Z,16.40
2022-10-28T19:13:14.360Z,15.10
2022-10-28T19:16:02.426Z,15.20
2022-10-28T19:18:49.238Z,15.20
2022-10-28T19:21:35.007Z,15.20
2022-10-28T19:24:22.693Z,15.20
2022-10-28T19:27:07.880Z,15.10
2022-10-28T19:29:53.906Z,15.20
2022-10-28T19:32:39.384Z,15.90
2022-10-28T19:35:24.650Z,15.00
2022-10-28T19:38:10.115Z,15.10
2022-10-28T19:40:55.708Z,15.00
2022-10-28T19:43:41.676Z,15.00
2022-10-28T19:46:29.145Z,15.00
2022-10-28T19:49:14.504Z,14.80
2022-10-28T19:52:00.158Z,15.40
2022-10-28T19:54:45.554Z,14.60
2022-10-28T19:57:31.186Z,15.40
2022-10-28T20:00:16.792Z,14.90
2022-10-28T20:03:02.135Z,14.40
2022-10-28T20:05:47.620Z,15.30
2022-10-28T20:08:35.472Z,14.50
2022-10-28T20:11:26.639Z,15.70
2022-10-28T20:14:13.136Z,14.40
2022-10-28T20:17:06.276Z,14.30
2022-10-28T20:19:51.972Z,14.40
2022-10-28T20:22:42.083Z,14.40
2022-10-28T20:25:27.559Z,14.40
2022-10-28T20:28:13.200Z,14.50
2022-10-28T20:31:08.458Z,14.60
2022-10-28T20:33:59.706Z,14.40
2022-10-28T20:36:45.183Z,15.50
2022-10-28T20:39:30.631Z,14.70
2022-10-28T20:42:16.131Z,13.90
2022-10-28T20:45:01.788Z,14.00
2022-10-28T20:47:47.180Z,14.00
2022-10-28T20:50:32.727Z,14.00
2022-10-28T20:53:18.545Z,14.80
2022-10-28T20:56:04.331Z,13.50
2022-10-28T20:58:49.950Z,14.20
2022-10-28T21:01:38.385Z,14.10
2022-10-28T21:04:24.172Z,14.20
2022-10-28T21:07:09.471Z,14.10
2022-10-28T21:09:55.131Z,15.00
2022-10-28T21:12:40.692Z,14.20
2022-10-28T21:15:26.904Z,14.10
2022-10-28T21:18:13.190Z,14.30
2022-10-28T21:20:59.598Z,14.30
2022-10-28T21:23:45.003Z,14.70
2022-10-28T21:26:30.428Z,14.40
2022-10-28T21:29:15.887Z,14.10
2022-10-28T21:32:01.624Z,14.20
2022-10-28T21:34:47.165Z,14.20
2022-10-28T21:37:33.529Z,14.50
2022-10-28T21:40:19.093Z,14.40
2022-10-28T21:43:04.632Z,14.30
2022-10-28T21:45:52.192Z,14.80
2022-10-28T21:48:37.892Z,14.60
2022-10-28T21:51:23.605Z,14.90
2022-10-28T21:54:09.117Z,15.50
2022-10-28T21:56:54.558Z,14.70
2022-10-28T21:59:39.933Z,14.70
2022-10-28T22:02:25.604Z,14.70
2022-10-28T22:05:11.199Z,14.70
2022-10-28T22:07:56.987Z,14.60
2022-10-28T22:10:42.326Z,14.60
2022-10-28T22:13:28.594Z,14.60
2022-10-28T22:16:18.017Z,14.60
2022-10-28T22:19:06.721Z,14.60
2022-10-28T22:21:52.045Z,14.60
2022-10-28T22:24:37.384Z,15.50
2022-10-28T22:27:22.833Z,15.50
2022-10-28T22:30:09.088Z,14.20
2022-10-28T22:32:54.886Z,14.30
2022-10-28T22:35:40.695Z,15.60
2022-10-28T22:38:26.567Z,14.50
2022-10-28T22:41:20.765Z,14.60
2022-10-28T22:44:07.185Z,14.60
2022-10-28T22:46:52.695Z,14.60
2022-10-28T22:49:38.273Z,14.60
2022-10-28T22:52:23.693Z,14.70
2022-10-28T22:55:09.780Z,16.50
2022-10-28T22:57:55.741Z,14.70
2022-10-28T23:00:41.461Z,14.70
2022-10-28T23:03:27.194Z,14.60
2022-10-28T23:06:14.911Z,14.60
2022-10-28T23:09:00.656Z,14.60
2022-10-28T23:11:46.069Z,14.40
2022-10-28T23:14:31.265Z,14.40
2022-10-28T23:17:16.827Z,14.30
2022-10-28T23:20:02.443Z,14.10
2022-10-28T23:22:47.898Z,14.80
2022-10-28T23:25:33.254Z,14.30
2022-10-28T23:28:18.879Z,14.40
2022-10-28T23:31:05.511Z,14.20
2022-10-28T23:33:52.457Z,14.10
2022-10-28T23:36:38.175Z,14.30
2022-10-28T23:39:23.738Z,14.00
2022-10-28T23:42:09.058Z,14.00
2022-10-28T23:44:54.706Z,14.00
2022-10-28T23:47:40.314Z,13.90
2022-10-28T23:50:25.880Z,13.90
2022-10-28T23:53:11.455Z,13.90
2022-10-28T23:55:57.300Z,15.00
2022-10-28T23:58:42.771Z,14.10
